Time;durP1;ratioP1;P1;durP2;ratioP2;P2;SDS_P1;SDS_P2;PMS_P1;PMS_P2;Temp;Humidity;BMP_temperature;BMP_pressure;BME280_temperature;BME280_humidity;BME280_pressure;Samples;Min_cycle;Max_cycle;Signal;HPM_P1;HPM_P2
2023/08/01 07:23:22;;;;;;;13.02;9.75;;;;;;;-145.79;100.00;76114.19;5287947;28;20397;-69
2023/08/01 07:25:53;;;;;;;14.15;10.80;;;;;;;-145.79;100.00;76088.75;5284336;28;20043;-68
2023/08/01 07:28:25;;;;;;;10.32;9.27;;;;;;;-145.79;100.00;76088.75;5284790;28;20016;-68
2023/08/01 07:31:05;;;;;;;10.43;9.40;;;;;;;-145.79;100.00;76090.88;5291805;28;20111;-69
2023/08/01 07:33:36;;;;;;;11.00;9.60;;;;;;;-145.79;100.00;76088.75;5290807;28;20048;-68
2023/08/01 07:36:08;;;;;;;12.65;9.45;;;;;;;-145.79;100.00;76090.88;5288535;28;20017;-69
2023/08/01 07:38:39;;;;;;;10.00;7.70;;;;;;;-145.79;100.00;76088.75;5289285;28;20029;-68
2023/08/01 07:41:10;;;;;;;10.45;8.10;;;;;;;-145.79;100.00;76080.28;5284048;28;20505;-69
2023/08/01 07:43:41;;;;;;;11.75;8.43;;;;;;;-145.79;100.00;76071.78;5285661;28;20035;-68
2023/08/01 07:46:13;;;;;;;11.80;7.80;;;;;;;-145.79;100.00;76069.69;5289213;28;20024;-69
2023/08/01 07:48:44;;;;;;;9.63;7.63;;;;;;;-145.79;99.91;76067.56;5288544;28;20032;-68
2023/08/01 07:51:15;;;;;;;8.77;6.53;;;;;;;-145.79;99.82;76076.03;5291348;28;20483;-68
2023/08/01 07:53:47;;;;;;;10.52;7.05;;;;;;;-145.79;100.00;76059.09;5291771;28;20047;-68
2023/08/01 07:56:19;;;;;;;10.25;6.28;;;;;;;-145.79;99.39;76054.84;5292252;28;20347;-68
2023/08/01 07:58:50;;;;;;;7.13;5.55;;;;;;;-145.79;97.67;76054.84;5278594;28;20025;-68
2023/08/01 08:01:22;;;;;;;7.32;4.85;;;;;;;-145.79;97.90;76065.44;5286481;28;20020;-67
2023/08/01 08:03:53;;;;;;;7.28;4.50;;;;;;;-145.79;97.16;76054.84;5287563;28;20447;-65
2023/08/01 08:06:25;;;;;;;7.03;5.20;;;;;;;-145.79;97.29;76052.72;5294560;28;20024;-69
2023/08/01 08:08:56;;;;;;;10.07;4.65;;;;;;;-145.79;97.41;76056.97;5286056;28;20035;-68
2023/08/01 08:11:27;;;;;;;8.27;4.50;;;;;;;-145.79;96.11;76059.09;5283369;28;20491;-69
2023/08/01 08:13:59;;;;;;;9.02;5.45;;;;;;;-145.79;95.75;76048.47;5257810;28;20025;-67
2023/08/01 08:16:30;;;;;;;6.68;5.28;;;;;;;-145.79;95.89;76044.25;5289035;28;20286;-70
2023/08/01 08:19:02;;;;;;;7.43;4.50;;;;;;;-145.79;93.93;76046.38;5286652;28;20021;-69
2023/08/01 08:21:33;;;;;;;5.45;4.28;;;;;;;-145.79;93.79;76023.06;5290411;28;20048;-71
2023/08/01 08:24:05;;;;;;;7.75;4.80;;;;;;;-145.79;94.76;76016.69;5281477;28;20033;-71
2023/08/01 08:26:37;;;;;;;5.15;4.65;;;;;;;-145.79;92.97;76014.59;5277674;28;20021;-70
2023/08/01 08:29:09;;;;;;;7.70;5.13;;;;;;;-145.79;93.33;76012.47;5286470;28;20025;-71
2023/08/01 08:31:40;;;;;;;7.32;5.03;;;;;;;-145.79;92.93;76006.09;5279424;28;20107;-71
2023/08/01 08:34:11;;;;;;;8.30;6.05;;;;;;;-145.79;92.45;76012.47;5261367;28;20047;-68
2023/08/01 08:36:43;;;;;;;10.68;6.07;;;;;;;-145.79;92.53;76004.00;5274754;28;20035;-72
2023/08/01 08:39:14;;;;;;;7.45;4.88;;;;;;;-145.79;91.45;75995.50;5268430;28;20025;-70
2023/08/01 08:41:47;;;;;;;9.63;5.32;;;;;;;-145.79;91.25;75997.63;5273121;28;20511;-73
2023/08/01 08:44:24;;;;;;;8.77;5.22;;;;;;;-145.79;91.76;76004.00;5276973;28;20039;-73
2023/08/01 08:47:00;;;;;;;9.95;4.40;;;;;;;-145.79;92.06;76016.69;5267982;28;20031;-73
2023/08/01 08:49:32;;;;;;;7.15;4.55;;;;;;;-145.79;91.79;76020.94;5263151;28;20091;-73
2023/08/01 08:52:04;;;;;;;6.13;4.07;;;;;;;-145.79;91.64;76020.94;5275734;28;20032;-73
2023/08/01 08:54:35;;;;;;;8.18;4.78;;;;;;;-145.79;92.45;76040.00;5265442;28;20025;-73
2023/08/01 08:57:07;;;;;;;9.82;4.40;;;;;;;-145.79;92.64;76046.38;5275726;28;20017;-72
2023/08/01 08:59:39;;;;;;;7.95;4.47;;;;;;;-145.79;93.95;76054.84;5276535;28;20047;-73
2023/08/01 09:02:11;;;;;;;4.68;3.47;;;;;;;-145.79;92.85;76069.69;5273002;28;20041;-74
2023/08/01 09:04:42;;;;;;;6.80;3.65;;;;;;;-145.79;93.29;76078.16;5272765;28;20025;-70
2023/08/01 09:07:19;;;;;;;5.28;3.55;;;;;;;-145.79;94.76;76078.16;5277073;28;20020;-73
2023/08/01 09:09:51;;;;;;;5.43;3.40;;;;;;;-145.79;95.97;76088.75;5269639;28;20020;-71
2023/08/01 09:12:22;;;;;;;5.40;3.17;;;;;;;-145.79;96.00;76097.22;5273538;28;20024;-71
2023/08/01 09:14:56;;;;;;;7.15;4.35;;;;;;;-145.79;96.05;76088.75;5272306;28;20421;-72
2023/08/01 09:17:27;;;;;;;4.65;3.35;;;;;;;-145.79;95.70;76105.69;5275345;28;20017;-72
2023/08/01 09:20:06;;;;;;;5.32;3.20;;;;;;;-145.79;95.93;76107.81;5257758;28;20078;-71
2023/08/01 09:22:45;;;;;;;4.40;3.30;;;;;;;-145.79;96.84;76122.66;5271897;28;20483;-71
2023/08/01 09:25:16;;;;;;;6.00;3.63;;;;;;;-145.79;97.26;76126.88;5271982;28;20058;-71
2023/08/01 09:27:47;;;;;;;7.15;3.50;;;;;;;-145.79;98.01;76139.59;5272670;28;20422;-72
2023/08/01 09:30:19;;;;;;;8.07;3.50;;;;;;;-145.79;98.03;76139.59;5265917;28;20171;-72
2023/08/01 09:32:54;;;;;;;7.35;4.32;;;;;;;-145.79;98.58;76158.66;5276284;28;20421;-74
2023/08/01 09:35:25;;;;;;;5.53;3.22;;;;;;;-145.79;99.03;76171.38;5274140;28;20032;-72
2023/08/01 09:38:00;;;;;;;4.22;2.30;;;;;;;-145.79;95.63;76198.94;5263391;28;20029;-72
2023/08/01 09:40:41;;;;;;;4.05;2.20;;;;;;;-145.79;94.77;76203.16;5268185;28;20429;-72
2023/08/01 09:43:13;;;;;;;3.35;1.80;;;;;;;-145.79;93.03;76220.13;5257602;28;20375;-72
2023/08/01 09:45:52;;;;;;;3.53;2.35;;;;;;;-145.79;93.64;76201.06;5265933;28;20396;-72
2023/08/01 09:48:25;;;;;;;7.72;6.25;;;;;;;-145.79;94.01;76198.94;5274025;28;20032;-70
2023/08/01 09:51:17;;;;;;;4.55;2.72;;;;;;;-145.79;93.55;76198.94;5272570;28;20472;-71
2023/08/01 09:53:56;;;;;;;5.45;2.60;;;;;;;-145.79;94.42;76194.69;5272368;28;20043;-71
2023/08/01 09:56:28;;;;;;;3.35;2.40;;;;;;;-145.79;94.66;76184.09;5270444;28;20077;-71
2023/08/01 09:59:01;;;;;;;5.97;2.60;;;;;;;-145.79;95.51;76169.25;5271197;28;20025;-72
2023/08/01 10:01:34;;;;;;;4.53;2.55;;;;;;;-145.79;95.78;76156.56;5269992;28;20044;-72
2023/08/01 10:04:07;;;;;;;5.55;4.00;;;;;;;-145.79;96.25;76135.38;5273063;28;20085;-71
2023/08/01 10:06:44;;;;;;;3.95;2.40;;;;;;;-145.79;97.40;76131.13;5275114;28;20099;-70
2023/08/01 10:09:16;;;;;;;5.60;3.10;;;;;;;-145.79;96.49;76137.47;5251797;28;20029;-71
2023/08/01 10:11:49;;;;;;;7.38;3.88;;;;;;;-145.79;97.25;76112.06;5274350;28;20025;-72
2023/08/01 10:14:21;;;;;;;6.20;4.03;;;;;;;-145.79;96.86;76063.31;5268895;28;20068;-74
2023/08/01 10:16:54;;;;;;;8.90;3.35;;;;;;;-145.79;95.84;76037.88;5271616;28;20025;-72
2023/08/01 10:19:26;;;;;;;8.15;3.80;;;;;;;-145.79;93.26;76046.38;5273234;28;20029;-72
2023/08/01 10:21:57;;;;;;;5.82;3.58;;;;;;;-145.79;95.08;76012.47;5274953;28;20036;-72
2023/08/01 10:24:29;;;;;;;6.15;3.90;;;;;;;-145.79;93.81;75995.50;5264271;28;20072;-71
2023/08/01 10:27:13;;;;;;;6.22;3.85;;;;;;;-145.79;90.97;75999.75;5281425;28;20456;-73
2023/08/01 10:30:05;;;;;;;14.18;12.13;;;;;;;-145.79;91.24;76010.34;5269301;28;20032;-72
2023/08/01 10:32:39;;;;;;;7.97;4.18;;;;;;;-145.79;91.64;76029.41;5267294;28;20028;-72
2023/08/01 10:35:10;;;;;;;6.25;3.53;;;;;;;-145.79;91.61;76016.69;5270991;28;20117;-72
2023/08/01 10:37:43;;;;;;;7.50;5.32;;;;;;;-145.79;92.76;76029.41;5273133;28;20108;-72
2023/08/01 10:40:15;;;;;;;7.13;3.70;;;;;;;-145.79;93.85;76025.19;5274059;28;20032;-72
2023/08/01 10:42:46;;;;;;;7.78;3.70;;;;;;;-145.79;91.69;76031.53;5271305;28;20032;-72
2023/08/01 10:45:23;;;;;;;7.38;3.63;;;;;;;-145.79;90.99;76037.88;5265960;28;20060;-73
2023/08/01 10:48:07;;;;;;;6.70;3.85;;;;;;;-145.79;91.34;76037.88;5269239;28;20036;-73
2023/08/01 10:50:39;;;;;;;7.18;3.67;;;;;;;-145.79;91.37;76046.38;5275035;28;20021;-75
2023/08/01 10:53:10;;;;;;;9.15;4.35;;;;;;;-145.79;92.23;76025.19;5270747;28;20246;-74
2023/08/01 10:55:44;;;;;;;11.30;4.18;;;;;;;-145.79;90.28;76042.13;5269792;28;20107;-71
2023/08/01 10:58:15;;;;;;;7.53;3.55;;;;;;;-145.79;91.84;76046.38;5268672;28;20025;-72
2023/08/01 11:00:57;;;;;;;6.22;3.70;;;;;;;-145.79;90.95;76037.88;5269583;28;20102;-73
2023/08/01 11:03:36;;;;;;;8.93;6.55;;;;;;;-145.79;90.84;76048.47;5268281;28;20078;-73
2023/08/01 11:06:07;;;;;;;6.72;3.45;;;;;;;-145.79;88.98;76071.78;5265801;28;20030;-72
2023/08/01 11:08:40;;;;;;;9.07;5.47;;;;;;;-145.79;89.37;76078.16;5269786;28;20409;-72
2023/08/01 11:11:13;;;;;;;9.05;5.45;;;;;;;-145.79;90.40;76078.16;5271562;28;20056;-72
2023/08/01 11:13:53;;;;;;;13.57;6.03;;;;;;;-145.79;89.67;76059.09;5266493;28;20035;-73
2023/08/01 11:16:25;;;;;;;5.55;3.15;;;;;;;-145.79;88.44;76069.69;5263254;28;20431;-73
2023/08/01 11:18:57;;;;;;;8.13;3.67;;;;;;;-145.79;90.44;76067.56;5274313;28;20025;-73
2023/08/01 11:21:28;;;;;;;6.75;3.08;;;;;;;-145.79;89.15;76042.13;5270951;28;20106;-73
2023/08/01 11:24:07;;;;;;;4.53;2.58;;;;;;;-145.79;89.39;76073.91;5265664;28;20372;-72
2023/08/01 11:26:45;;;;;;;7.32;3.08;;;;;;;-145.79;88.79;76080.28;5273165;28;20128;-73
2023/08/01 11:29:18;;;;;;;6.55;3.58;;;;;;;-145.79;89.79;76097.22;5265135;28;20033;-72
2023/08/01 11:31:58;;;;;;;5.07;2.80;;;;;;;-145.79;90.76;76099.34;5262163;28;20045;-72
2023/08/01 11:34:40;;;;;;;8.30;2.72;;;;;;;-145.79;89.97;76082.38;5271959;28;20024;-73
2023/08/01 11:37:18;;;;;;;9.93;2.97;;;;;;;-145.79;89.82;76101.47;5250296;28;20029;-72
2023/08/01 11:39:50;;;;;;;8.15;4.47;;;;;;;-145.79;90.03;76116.28;5257955;28;20021;-72
2023/08/01 11:42:22;;;;;;;9.40;3.65;;;;;;;-145.79;92.07;76114.19;5261156;28;20024;-72
2023/08/01 11:44:53;;;;;;;8.25;3.45;;;;;;;-145.79;90.76;76103.56;5268276;28;20094;-70
2023/08/01 11:47:24;;;;;;;7.45;3.40;;;;;;;-145.79;90.05;76105.69;5274039;28;20028;-72
2023/08/01 11:49:56;;;;;;;8.50;3.97;;;;;;;-145.79;89.08;76099.34;5257000;28;20017;-72
2023/08/01 11:52:28;;;;;;;6.82;3.50;;;;;;;-145.79;88.25;76080.28;5259136;28;20025;-72
2023/08/01 11:55:00;;;;;;;11.15;3.78;;;;;;;-145.79;89.92;76037.88;5271259;28;20021;-71
2023/08/01 11:57:34;;;;;;;8.45;4.63;;;;;;;-145.79;87.87;75999.75;5261418;28;20043;-71
2023/08/01 12:00:06;;;;;;;7.15;3.80;;;;;;;-145.79;83.63;75987.03;5273496;28;20032;-71
2023/08/01 12:02:37;;;;;;;7.65;3.50;;;;;;;-145.79;82.65;75972.22;5273397;28;20027;-72
2023/08/01 12:05:09;;;;;;;5.55;2.45;;;;;;;-145.79;77.39;75957.38;5270897;28;20460;-73
2023/08/01 12:07:40;;;;;;;6.82;3.53;;;;;;;-145.79;76.75;75955.25;5266377;28;20021;-74
2023/08/01 12:10:11;;;;;;;4.90;2.58;;;;;;;-145.79;75.26;75959.50;5273569;28;20029;-72
2023/08/01 12:12:47;;;;;;;6.55;3.00;;;;;;;-145.79;77.35;75940.41;5275367;28;20020;-74
2023/08/01 12:15:21;;;;;;;4.80;2.53;;;;;;;-145.79;77.26;75910.75;5273534;28;20133;-73
2023/08/01 12:17:52;;;;;;;6.70;2.95;;;;;;;-145.79;75.68;75912.88;5276934;28;20099;-74
2023/08/01 12:20:24;;;;;;;12.52;10.02;;;;;;;-145.79;72.27;75902.28;5275238;28;20151;-75
2023/08/01 12:22:55;;;;;;;3.40;2.17;;;;;;;-145.79;68.28;75889.56;5273152;28;20045;-74
2023/08/01 12:25:26;;;;;;;6.22;2.10;;;;;;;-145.79;65.71;75891.69;5274374;28;20053;-74
2023/08/01 12:27:57;;;;;;;4.32;3.53;;;;;;;-145.79;64.82;75910.75;5277433;28;20119;-74
2023/08/01 12:30:29;;;;;;;5.43;2.30;;;;;;;-145.79;65.49;75902.28;5266260;28;20030;-74
2023/08/01 12:33:00;;;;;;;3.63;2.10;;;;;;;-145.79;67.20;75868.38;5276558;28;20024;-74
2023/08/01 12:35:31;;;;;;;5.55;3.10;;;;;;;-145.79;65.36;75849.31;5276411;28;20039;-74
2023/08/01 12:38:03;;;;;;;4.78;3.92;;;;;;;-145.79;66.07;75817.53;5271082;28;20056;-72
2023/08/01 12:40:34;;;;;;;6.05;2.67;;;;;;;-145.79;65.21;75821.75;5273466;28;20392;-71
2023/08/01 12:43:06;;;;;;;6.68;2.50;;;;;;;-145.79;65.12;75847.19;5277030;28;20028;-70
2023/08/01 12:45:37;;;;;;;4.82;2.88;;;;;;;-145.79;65.69;75851.44;5261588;28;20186;-71
2023/08/01 12:48:08;;;;;;;4.63;2.53;;;;;;;-145.79;66.99;75817.53;5261128;28;20024;-67
2023/08/01 12:50:45;;;;;;;3.70;1.95;;;;;;;-145.79;63.06;75834.47;5267830;28;20027;-67
2023/08/01 12:53:16;;;;;;;6.53;2.60;;;;;;;-145.79;64.30;75806.94;5276050;28;20139;-67
2023/08/01 12:55:49;;;;;;;7.10;3.03;;;;;;;-145.79;64.40;75817.53;5276285;28;20116;-66
2023/08/01 12:58:21;;;;;;;8.30;3.17;;;;;;;-145.79;64.29;75792.09;5264844;28;20059;-69
2023/08/01 13:00:52;;;;;;;4.28;2.13;;;;;;;-145.79;62.84;75787.88;5274952;28;20020;-69
2023/08/01 13:03:23;;;;;;;6.22;2.40;;;;;;;-145.79;65.35;75792.09;5272620;28;20040;-69
2023/08/01 13:05:56;;;;;;;4.13;2.20;;;;;;;-145.79;63.12;75766.69;5271569;28;20053;-70
2023/08/01 13:08:29;;;;;;;36.10;32.55;;;;;;;-145.79;65.13;75766.69;5276533;28;20059;-70
2023/08/01 13:11:00;;;;;;;6.70;3.92;;;;;;;-145.79;65.31;75781.50;5275846;28;20025;-70
2023/08/01 13:13:31;;;;;;;3.83;2.55;;;;;;;-145.79;65.30;75789.97;5267613;28;20028;-69
2023/08/01 13:16:03;;;;;;;6.72;2.13;;;;;;;-145.79;64.25;75830.25;5275973;28;20032;-69
2023/08/01 13:18:34;;;;;;;4.35;1.98;;;;;;;-145.79;64.92;75815.41;5263641;28;20056;-71
2023/08/01 13:21:06;;;;;;;4.57;2.05;;;;;;;-145.79;64.33;75802.69;5267874;28;20076;-72
2023/08/01 13:23:37;;;;;;;7.05;3.33;;;;;;;-145.79;61.24;75787.88;5271846;28;20098;-71
2023/08/01 13:26:08;;;;;;;6.65;2.10;;;;;;;-145.79;61.93;75753.97;5269068;28;20107;-70
2023/08/01 13:28:40;;;;;;;6.70;3.78;;;;;;;-145.79;61.64;75751.84;5274168;28;20490;-70
2023/08/01 13:31:11;;;;;;;5.00;1.98;;;;;;;-145.79;58.51;75758.19;5276205;28;20024;-72
2023/08/01 13:33:42;;;;;;;6.20;2.60;;;;;;;-145.79;60.18;75741.25;5272980;28;20090;-72
2023/08/01 13:36:14;;;;;;;4.32;2.53;;;;;;;-145.79;59.73;75741.25;5270786;28;20079;-72
2023/08/01 13:38:45;;;;;;;4.65;2.10;;;;;;;-145.79;58.83;75783.63;5264035;28;20051;-70
2023/08/01 13:41:16;;;;;;;5.07;2.10;;;;;;;-145.79;58.71;75817.53;5270232;28;20418;-71
2023/08/01 13:43:48;;;;;;;8.98;5.53;;;;;;;-145.79;60.33;75817.53;5271165;28;20404;-70
2023/08/01 13:46:19;;;;;;;4.78;2.40;;;;;;;-145.79;62.05;75792.09;5271264;28;20052;-70
2023/08/01 13:48:50;;;;;;;9.85;5.30;;;;;;;-145.79;58.81;75775.16;5273505;28;20055;-69
2023/08/01 13:51:22;;;;;;;3.88;1.90;;;;;;;-145.79;60.51;75741.25;5275026;28;20039;-69
2023/08/01 13:53:58;;;;;;;4.53;1.80;;;;;;;-145.79;57.03;75711.59;5268565;28;20028;-71
2023/08/01 13:56:30;;;;;;;4.07;1.80;;;;;;;-145.79;54.16;75707.34;5274267;28;20357;-71
2023/08/01 13:59:01;;;;;;;3.67;1.67;;;;;;;-145.79;55.05;75686.16;5251087;28;20099;-71
2023/08/01 14:01:32;;;;;;;4.47;2.63;;;;;;;-145.79;54.65;75660.75;5275145;28;20036;-70
2023/08/01 14:04:04;;;;;;;4.25;1.83;;;;;;;-145.79;51.08;75658.63;5266765;28;20468;-68
2023/08/01 14:06:36;;;;;;;4.85;2.13;;;;;;;-145.79;51.75;75681.94;5265896;28;20028;-68
2023/08/01 14:09:11;;;;;;;3.92;2.13;;;;;;;-145.79;51.74;75660.75;5269703;28;20486;-68
2023/08/01 14:11:42;;;;;;;;;;;;;;;-145.79;51.66;75643.78;5267514;28;20016;-68
2023/08/01 14:14:13;;;;;;;4.25;2.13;;;;;;;-145.79;51.97;75656.50;5252881;28;19924;-68
2023/08/01 14:16:45;;;;;;;4.13;2.15;;;;;;;-145.79;52.43;75656.50;5270344;28;20021;-67
2023/08/01 14:19:16;;;;;;;5.85;2.22;;;;;;;-145.79;52.15;75656.50;5270848;28;20465;-67
2023/08/01 14:21:47;;;;;;;3.88;1.52;;;;;;;-145.79;52.13;75669.22;5268589;28;20088;-68
2023/08/01 14:24:19;;;;;;;2.70;1.67;;;;;;;-145.79;52.20;75677.69;5270377;28;20045;-67
2023/08/01 14:26:51;;;;;;;3.95;1.60;;;;;;;-145.79;50.61;75660.75;5259028;28;20112;-69
2023/08/01 14:29:22;;;;;;;5.10;1.73;;;;;;;-145.79;50.72;75667.09;5266076;28;20458;-67
2023/08/01 14:31:53;;;;;;;8.05;1.92;;;;;;;-145.79;52.08;75631.06;5268767;28;20029;-68
2023/08/01 14:34:25;;;;;;;3.08;1.73;;;;;;;-145.79;51.36;75616.25;5276317;28;20021;-68
2023/08/01 14:36:56;;;;;;;8.20;6.85;;;;;;;-145.79;50.56;75601.41;5273291;28;20089;-69
2023/08/01 14:39:27;;;;;;;4.95;2.42;;;;;;;-145.79;46.94;75654.38;5263872;28;20035;-68
2023/08/01 14:41:59;;;;;;;3.83;1.42;;;;;;;-145.79;46.42;75660.75;5269855;28;20029;-68
2023/08/01 14:44:30;;;;;;;2.30;1.80;;;;;;;-145.79;48.19;75648.03;5257887;28;20453;-68
2023/08/01 14:47:02;;;;;;;3.35;1.30;;;;;;;-145.79;48.43;75643.78;5256927;28;20100;-68
2023/08/01 14:49:33;;;;;;;4.25;1.55;;;;;;;-145.79;47.53;75669.22;5266594;28;20037;-69
2023/08/01 14:52:05;;;;;;;2.10;1.40;;;;;;;-145.79;48.19;75656.50;5273760;28;20074;-70
2023/08/01 14:54:37;;;;;;;2.08;1.20;;;;;;;-145.79;48.32;75650.16;5261953;28;20021;-69
2023/08/01 14:57:09;;;;;;;5.22;1.60;;;;;;;-145.79;48.57;75648.03;5264284;28;20035;-69
2023/08/01 14:59:40;;;;;;;3.72;1.45;;;;;;;-145.79;48.33;75635.31;5261052;28;20029;-69
2023/08/01 15:02:11;;;;;;;8.27;6.82;;;;;;;-145.79;48.24;75637.44;5269329;28;20028;-71
2023/08/01 15:04:43;;;;;;;7.55;1.77;;;;;;;-145.79;48.32;75650.16;5268802;28;20119;-68
2023/08/01 15:07:14;;;;;;;3.95;1.83;;;;;;;-145.79;47.75;75654.38;5272057;28;20056;-69
2023/08/01 15:09:46;;;;;;;5.18;1.65;;;;;;;-145.79;47.80;75652.25;5274267;28;20479;-68
2023/08/01 15:12:23;;;;;;;3.85;1.58;;;;;;;-145.79;48.27;75669.22;5274004;28;20035;-69
2023/08/01 15:14:56;;;;;;;2.40;1.50;;;;;;;-145.79;50.18;75658.63;5266292;28;20025;-69
2023/08/01 15:17:27;;;;;;;2.85;1.70;;;;;;;-145.79;50.09;75662.84;5272675;28;20379;-71
2023/08/01 15:19:58;;;;;;;3.38;1.40;;;;;;;-145.79;49.30;75684.03;5262579;28;20029;-68
2023/08/01 15:22:30;;;;;;;2.97;1.90;;;;;;;-145.79;49.73;75673.44;5270361;28;20048;-70
2023/08/01 15:25:01;;;;;;;15.13;11.15;;;;;;;-145.79;49.92;75669.22;5269940;28;20025;-70
2023/08/01 15:27:32;;;;;;;6.82;4.15;;;;;;;-145.79;50.22;75681.94;5272792;28;20028;-67
2023/08/01 15:30:05;;;;;;;10.00;7.68;;;;;;;-145.79;50.00;75690.41;5266956;28;20566;-68
2023/08/01 15:32:36;;;;;;;3.90;2.17;;;;;;;-145.79;48.57;75703.13;5266362;28;20049;-70
2023/08/01 15:35:08;;;;;;;4.28;1.67;;;;;;;-145.79;49.99;75690.41;5257148;28;20503;-70
2023/08/01 15:37:39;;;;;;;3.45;2.47;;;;;;;-145.79;49.57;75707.34;5265454;28;20040;-69
2023/08/01 15:40:11;;;;;;;3.30;1.63;;;;;;;-145.79;50.17;75688.28;5274007;28;20487;-70
2023/08/01 15:42:42;;;;;;;4.63;2.28;;;;;;;-145.79;49.43;75713.72;5270184;28;20062;-71
2023/08/01 15:45:14;;;;;;;3.38;1.58;;;;;;;-145.79;47.96;75722.19;5263031;28;20033;-72
2023/08/01 15:47:45;;;;;;;3.10;1.40;;;;;;;-145.79;47.50;75720.06;5261356;28;20039;-71
2023/08/01 15:50:16;;;;;;;4.47;1.60;;;;;;;-145.79;47.81;75737.00;5273713;28;20491;-72
2023/08/01 15:52:47;;;;;;;3.72;1.60;;;;;;;-145.79;48.16;75756.09;5273784;28;20032;-71
2023/08/01 15:55:19;;;;;;;8.10;6.07;;;;;;;-145.79;48.45;75743.38;5270723;28;20541;-70
2023/08/01 15:57:50;;;;;;;2.90;1.75;;;;;;;-145.79;48.62;75739.13;5275717;28;20106;-69
2023/08/01 16:00:22;;;;;;;5.32;1.67;;;;;;;-145.79;49.13;75751.84;5274111;28;20067;-74
2023/08/01 16:02:55;;;;;;;4.15;2.20;;;;;;;-145.79;49.37;75726.41;5265834;28;20052;-74
2023/08/01 16:05:26;;;;;;;4.72;1.63;;;;;;;-145.79;50.14;75753.97;5274608;28;20419;-75
2023/08/01 16:08:02;;;;;;;7.07;1.70;;;;;;;-145.79;51.10;75770.91;5265236;28;20039;-74
2023/08/01 16:10:33;;;;;;;3.22;1.77;;;;;;;-145.79;51.05;75760.31;5267032;28;20059;-74
2023/08/01 16:13:05;;;;;;;15.68;13.75;;;;;;;-145.79;50.79;75741.25;5268487;28;20558;-75
2023/08/01 16:15:40;;;;;;;4.63;2.22;;;;;;;-145.79;51.89;75766.69;5277441;28;20021;-75
2023/08/01 16:18:14;;;;;;;4.43;2.15;;;;;;;-145.79;52.11;75781.50;5277085;28;20380;-73
2023/08/01 16:20:46;;;;;;;5.32;1.83;;;;;;;-145.79;52.92;75787.88;5273145;28;20491;-74
2023/08/01 16:23:21;;;;;;;4.53;2.65;;;;;;;-145.79;53.21;75794.22;5276013;28;20072;-74
2023/08/01 16:25:52;;;;;;;6.75;2.33;;;;;;;-145.79;54.55;75796.34;5272985;28;20029;-74
2023/08/01 16:28:23;;;;;;;4.80;1.92;;;;;;;-145.79;54.95;75796.34;5269800;28;20472;-74
2023/08/01 16:30:55;;;;;;;4.38;2.13;;;;;;;-145.79;55.81;75826.00;5277476;28;20028;-74
2023/08/01 16:33:26;;;;;;;2.92;1.60;;;;;;;-145.79;56.70;75821.75;5275474;28;20082;-73
2023/08/01 16:35:57;;;;;;;4.13;1.70;;;;;;;-145.79;53.00;75821.75;5262057;28;20380;-74
2023/08/01 16:38:29;;;;;;;2.83;1.60;;;;;;;-145.79;52.41;75830.25;5275605;28;20027;-71
2023/08/01 16:41:04;;;;;;;3.50;2.20;;;;;;;-145.79;52.52;75821.75;5273353;28;20407;-71
2023/08/01 16:43:38;;;;;;;3.20;1.85;;;;;;;-145.79;52.83;75821.75;5273627;28;20484;-72
2023/08/01 16:46:09;;;;;;;4.70;1.50;;;;;;;-145.79;53.12;75842.97;5269848;28;20020;-71
2023/08/01 16:48:41;;;;;;;3.35;1.70;;;;;;;-145.79;53.41;75836.59;5276627;28;20039;-71
2023/08/01 16:51:12;;;;;;;4.68;1.63;;;;;;;-145.79;53.58;75834.47;5272828;28;20028;-72
2023/08/01 16:53:43;;;;;;;3.85;1.70;;;;;;;-145.79;53.38;75851.44;5272297;28;20384;-72
